createdAt,value
2017-09-18T00:00:34.075Z,8.74
2017-09-18T00:01:34.646Z,8.64
2017-09-18T00:02:35.216Z,8.60
2017-09-18T00:03:35.798Z,8.64
2017-09-18T00:04:36.369Z,8.69
2017-09-18T00:05:36.938Z,8.76
2017-09-18T00:06:37.512Z,8.81
2017-09-18T00:07:38.078Z,8.76
2017-09-18T00:08:38.649Z,8.63
2017-09-18T00:09:39.217Z,8.60
2017-09-18T00:10:39.786Z,8.52
2017-09-18T00:11:40.356Z,8.61
2017-09-18T00:12:40.927Z,8.52
2017-09-18T00:13:41.497Z,8.52
2017-09-18T00:14:42.065Z,8.60
2017-09-18T00:15:42.634Z,8.81
2017-09-18T00:16:43.204Z,8.73
2017-09-18T00:17:43.773Z,8.76
2017-09-18T00:18:44.344Z,8.87
2017-09-18T00:19:44.913Z,8.76
2017-09-18T00:20:45.495Z,8.89
2017-09-18T00:21:46.064Z,8.85
2017-09-18T00:22:46.635Z,8.76
2017-09-18T00:23:47.215Z,8.76
2017-09-18T00:24:47.788Z,8.76
2017-09-18T00:25:48.365Z,8.82
2017-09-18T00:26:48.935Z,8.70
2017-09-18T00:27:49.514Z,8.76
2017-09-18T00:28:50.084Z,8.73
2017-09-18T00:29:50.653Z,8.74
2017-09-18T00:30:51.224Z,8.70
2017-09-18T00:31:51.791Z,8.66
2017-09-18T00:32:52.362Z,8.73
2017-09-18T00:33:52.934Z,8.64
2017-09-18T00:34:53.505Z,8.61
2017-09-18T00:35:54.076Z,8.49
2017-09-18T00:36:54.645Z,8.42
2017-09-18T00:37:55.217Z,8.31
2017-09-18T00:38:55.785Z,8.45
2017-09-18T00:39:56.356Z,8.36
2017-09-18T00:40:56.925Z,8.44
2017-09-18T00:41:57.496Z,8.41
2017-09-18T00:42:58.064Z,8.44
2017-09-18T00:43:58.633Z,8.34
2017-09-18T00:44:59.203Z,8.44
2017-09-18T00:45:59.774Z,8.37
2017-09-18T00:47:00.342Z,8.37
2017-09-18T00:48:00.913Z,8.33
2017-09-18T00:49:01.482Z,8.31
2017-09-18T00:50:02.065Z,8.30
2017-09-18T00:51:02.636Z,8.38
2017-09-18T00:52:03.203Z,8.34
2017-09-18T00:53:03.774Z,8.41
2017-09-18T00:54:04.343Z,8.44
2017-09-18T00:55:04.940Z,8.49
2017-09-18T00:56:05.490Z,8.41
2017-09-18T00:57:06.064Z,8.45
2017-09-18T00:58:06.635Z,8.48
2017-09-18T00:59:07.205Z,8.45
2017-09-18T01:00:07.775Z,8.42
2017-09-18T01:01:08.345Z,8.33
2017-09-18T01:02:08.917Z,8.42
2017-09-18T01:03:09.486Z,8.45
2017-09-18T01:04:10.058Z,8.48
2017-09-18T01:05:10.626Z,8.53
2017-09-18T01:06:11.198Z,8.34
2017-09-18T01:07:11.764Z,8.33
2017-09-18T01:08:12.335Z,8.48
2017-09-18T01:09:12.903Z,8.45
2017-09-18T01:10:13.472Z,8.48
2017-09-18T01:11:14.048Z,8.27
2017-09-18T01:12:14.611Z,8.46
2017-09-18T01:13:15.182Z,8.28
2017-09-18T01:14:15.762Z,8.52
2017-09-18T01:15:16.340Z,8.55
2017-09-18T01:16:16.908Z,8.42
2017-09-18T01:17:17.476Z,8.42
2017-09-18T01:18:18.044Z,8.44
2017-09-18T01:19:18.613Z,8.53
2017-09-18T01:20:19.182Z,8.49
2017-09-18T01:21:19.752Z,8.53
2017-09-18T01:22:20.321Z,8.49
2017-09-18T01:23:20.890Z,8.52
2017-09-18T01:24:21.459Z,8.53
2017-09-18T01:25:22.028Z,8.60
2017-09-18T01:26:22.596Z,8.63
2017-09-18T01:27:23.165Z,8.63
2017-09-18T01:28:23.733Z,8.63
2017-09-18T01:29:24.303Z,8.61
2017-09-18T01:30:24.873Z,8.64
2017-09-18T01:31:25.441Z,8.74
2017-09-18T01:32:26.010Z,8.73
2017-09-18T01:33:26.579Z,8.82
2017-09-18T01:34:27.148Z,8.81
2017-09-18T01:35:27.729Z,8.76
2017-09-18T01:36:28.299Z,8.76
2017-09-18T01:37:28.868Z,8.84
2017-09-18T01:38:29.437Z,8.82
2017-09-18T01:39:30.006Z,8.82
2017-09-18T01:40:30.577Z,8.82
2017-09-18T01:41:31.146Z,8.97
2017-09-18T01:42:31.716Z,8.95
2017-09-18T01:43:32.286Z,8.92
2017-09-18T01:44:32.855Z,8.94
2017-09-18T01:45:33.424Z,8.99
2017-09-18T01:46:33.993Z,8.94
2017-09-18T01:47:34.562Z,8.99
2017-09-18T01:48:35.137Z,9.06
2017-09-18T01:49:35.701Z,9.03
2017-09-18T01:50:36.270Z,9.22
2017-09-18T01:51:36.852Z,9.16
2017-09-18T01:52:37.421Z,9.28
2017-09-18T01:53:37.992Z,9.18
2017-09-18T01:54:38.579Z,9.31
2017-09-18T01:55:39.143Z,9.19
2017-09-18T01:56:39.724Z,9.18
2017-09-18T01:57:40.295Z,9.06
2017-09-18T01:58:40.863Z,9.23
2017-09-18T01:59:41.432Z,9.14
2017-09-18T02:00:42.012Z,9.26
2017-09-18T02:01:42.583Z,9.26
2017-09-18T02:02:43.152Z,9.16
2017-09-18T02:03:43.722Z,9.19
2017-09-18T02:04:44.292Z,9.28
2017-09-18T02:05:44.864Z,9.22
2017-09-18T02:06:45.433Z,9.18
2017-09-18T02:07:46.004Z,9.19
2017-09-18T02:08:46.573Z,9.22
2017-09-18T02:09:47.143Z,9.29
2017-09-18T02:10:47.712Z,9.16
2017-09-18T02:11:48.281Z,9.21
2017-09-18T02:12:48.850Z,9.23
2017-09-18T02:13:49.432Z,9.25
2017-09-18T02:14:50.011Z,9.26
2017-09-18T02:15:50.580Z,9.34
2017-09-18T02:16:51.148Z,9.44
2017-09-18T02:17:51.716Z,9.40
2017-09-18T02:18:52.287Z,9.39
2017-09-18T02:19:52.855Z,9.32
2017-09-18T02:20:53.425Z,9.39
2017-09-18T02:21:53.993Z,9.39
2017-09-18T02:22:54.565Z,9.43
2017-09-18T02:23:55.133Z,9.34
2017-09-18T02:24:55.703Z,9.26
2017-09-18T02:25:56.272Z,9.23
2017-09-18T02:26:56.853Z,9.26
2017-09-18T02:27:57.427Z,9.26
2017-09-18T02:28:57.994Z,9.39
2017-09-18T02:29:58.573Z,9.50
2017-09-18T02:30:59.143Z,9.40
2017-09-18T02:31:59.710Z,9.58
2017-09-18T02:33:00.280Z,9.64
2017-09-18T02:34:00.849Z,9.44
2017-09-18T02:35:01.416Z,9.40
2017-09-18T02:36:01.986Z,9.48
2017-09-18T02:37:02.565Z,9.34
2017-09-18T02:38:03.137Z,9.50
2017-09-18T02:39:03.707Z,9.50
2017-09-18T02:40:04.276Z,9.48
2017-09-18T02:41:04.845Z,9.56
2017-09-18T02:42:05.415Z,9.55
2017-09-18T02:43:05.986Z,9.56
2017-09-18T02:44:06.556Z,9.66
2017-09-18T02:45:07.126Z,9.48
2017-09-18T02:46:07.695Z,9.62
2017-09-18T02:47:08.268Z,9.68
2017-09-18T02:48:08.835Z,9.64
2017-09-18T02:49:09.406Z,9.64
2017-09-18T02:50:09.974Z,9.76
2017-09-18T02:51:10.543Z,9.79
2017-09-18T02:52:11.113Z,9.66
2017-09-18T02:53:11.684Z,9.68
2017-09-18T02:54:12.252Z,9.62
2017-09-18T02:55:12.823Z,9.65
2017-09-18T02:56:13.393Z,9.73
2017-09-18T02:57:13.962Z,9.77
2017-09-18T02:58:14.531Z,9.79
2017-09-18T02:59:15.101Z,9.74
2017-09-18T03:00:15.671Z,9.79
2017-09-18T03:01:16.240Z,9.74
2017-09-18T03:02:16.808Z,9.79
2017-09-18T03:03:17.379Z,9.77
2017-09-18T03:04:17.948Z,9.80
2017-09-18T03:05:18.522Z,9.80
2017-09-18T03:06:19.099Z,9.87
2017-09-18T03:07:19.670Z,9.87
2017-09-18T03:08:20.241Z,9.89
2017-09-18T03:09:20.811Z,9.94
2017-09-18T03:10:21.386Z,9.94
2017-09-18T03:11:21.954Z,10.02
2017-09-18T03:12:22.556Z,10.07
2017-09-18T03:13:23.094Z,9.94
2017-09-18T03:14:23.665Z,10.01
2017-09-18T03:15:24.233Z,9.98
2017-09-18T03:16:24.804Z,10.04
2017-09-18T03:17:25.373Z,10.02
2017-09-18T03:18:25.945Z,10.05
2017-09-18T03:19:26.526Z,10.02
2017-09-18T03:20:27.097Z,10.04
2017-09-18T03:21:27.675Z,10.01
2017-09-18T03:22:28.239Z,9.97
2017-09-18T03:23:28.809Z,9.98
2017-09-18T03:24:29.380Z,10.04
2017-09-18T03:25:29.952Z,10.04
2017-09-18T03:26:30.522Z,10.19
2017-09-18T03:27:31.093Z,10.17
2017-09-18T03:28:31.664Z,10.26
2017-09-18T03:29:32.234Z,10.13
2017-09-18T03:30:32.814Z,10.19
2017-09-18T03:31:33.375Z,10.10
2017-09-18T03:32:33.946Z,10.17
2017-09-18T03:33:34.516Z,10.12
2017-09-18T03:34:35.097Z,10.12
2017-09-18T03:35:35.679Z,10.09
2017-09-18T03:36:36.250Z,10.13
2017-09-18T03:37:36.823Z,9.99
2017-09-18T03:38:37.393Z,10.10
2017-09-18T03:39:37.964Z,9.97
2017-09-18T03:40:38.534Z,9.91
2017-09-18T03:41:39.106Z,9.94
2017-09-18T03:42:39.683Z,9.97
2017-09-18T03:43:40.248Z,10.04
2017-09-18T03:44:40.818Z,9.95
2017-09-18T03:45:41.400Z,10.04
2017-09-18T03:46:41.971Z,9.98
2017-09-18T03:47:42.551Z,9.92
2017-09-18T03:48:43.127Z,9.91
2017-09-18T03:49:43.690Z,9.91
2017-09-18T03:50:44.259Z,9.97
2017-09-18T03:51:44.829Z,9.95
2017-09-18T03:52:45.399Z,9.94
2017-09-18T03:53:45.969Z,9.91
2017-09-18T03:54:46.541Z,10.07
2017-09-18T03:55:47.111Z,10.01
2017-09-18T03:56:47.693Z,9.98
2017-09-18T03:57:48.265Z,10.01
2017-09-18T03:58:48.836Z,10.01
2017-09-18T03:59:49.406Z,9.98
2017-09-18T04:00:49.976Z,10.02
2017-09-18T04:01:50.557Z,9.98
2017-09-18T04:02:51.130Z,10.07
2017-09-18T04:03:51.702Z,10.02
2017-09-18T04:04:52.273Z,9.99
2017-09-18T04:05:52.843Z,10.02
2017-09-18T04:06:53.416Z,10.07
2017-09-18T04:07:53.986Z,10.04
2017-09-18T04:08:54.555Z,9.99
2017-09-18T04:09:55.125Z,10.04
2017-09-18T04:10:55.706Z,9.92
2017-09-18T04:11:56.276Z,9.92
2017-09-18T04:12:56.851Z,9.86
2017-09-18T04:13:57.418Z,9.89
2017-09-18T04:14:57.989Z,9.94
2017-09-18T04:15:58.560Z,9.89
2017-09-18T04:16:59.132Z,10.01
2017-09-18T04:17:59.704Z,10.01
2017-09-18T04:19:00.274Z,9.97
2017-09-18T04:20:00.846Z,10.04
2017-09-18T04:21:01.416Z,10.01
2017-09-18T04:22:01.986Z,10.01
2017-09-18T04:23:02.556Z,9.99
2017-09-18T04:24:03.125Z,10.01
2017-09-18T04:25:03.696Z,9.95
2017-09-18T04:26:04.270Z,9.94
2017-09-18T04:27:04.836Z,9.92
2017-09-18T04:28:05.406Z,9.97
2017-09-18T04:29:05.975Z,9.97
2017-09-18T04:30:06.544Z,9.99
2017-09-18T04:31:07.113Z,10.01
2017-09-18T04:32:07.683Z,9.98
2017-09-18T04:33:08.253Z,10.01
2017-09-18T04:34:08.823Z,9.99
2017-09-18T04:35:09.393Z,10.01
2017-09-18T04:36:09.962Z,9.99
2017-09-18T04:37:10.532Z,9.97
2017-09-18T04:38:11.101Z,10.05
2017-09-18T04:39:11.684Z,10.01
2017-09-18T04:40:12.255Z,10.05
2017-09-18T04:41:12.827Z,10.04
2017-09-18T04:42:13.397Z,10.15
2017-09-18T04:43:13.981Z,10.04
2017-09-18T04:44:14.553Z,10.10
2017-09-18T04:45:15.124Z,10.10
2017-09-18T04:46:15.695Z,10.16
2017-09-18T04:47:16.267Z,10.19
2017-09-18T04:48:16.837Z,10.10
2017-09-18T04:49:17.408Z,10.01
2017-09-18T04:50:17.979Z,10.15
2017-09-18T04:51:18.549Z,10.15
2017-09-18T04:52:19.122Z,10.04
2017-09-18T04:53:19.694Z,9.91
2017-09-18T04:54:20.274Z,9.89
2017-09-18T04:55:20.843Z,9.95
2017-09-18T04:56:21.413Z,9.87
2017-09-18T04:57:21.981Z,9.69
2017-09-18T04:58:22.549Z,9.66
2017-09-18T04:59:23.121Z,9.61
2017-09-18T05:00:23.692Z,9.50
2017-09-18T05:01:24.259Z,9.58
2017-09-18T05:02:24.829Z,9.55
2017-09-18T05:03:25.403Z,9.83
2017-09-18T05:04:25.980Z,9.73
2017-09-18T05:05:26.551Z,9.76
2017-09-18T05:06:27.122Z,9.79
2017-09-18T05:07:27.702Z,9.84
2017-09-18T05:08:28.270Z,9.87
2017-09-18T05:09:28.841Z,9.89
2017-09-18T05:10:29.410Z,9.91
2017-09-18T05:11:29.980Z,9.83
2017-09-18T05:12:30.560Z,9.87
2017-09-18T05:13:31.131Z,9.91
2017-09-18T05:14:31.700Z,9.95
2017-09-18T05:15:32.270Z,9.87
2017-09-18T05:16:32.840Z,9.97
2017-09-18T05:17:33.413Z,9.98
2017-09-18T05:18:33.981Z,10.02
2017-09-18T05:19:34.552Z,9.99
2017-09-18T05:20:35.123Z,10.02
2017-09-18T05:21:35.694Z,10.01
2017-09-18T05:22:36.263Z,9.98
2017-09-18T05:23:36.832Z,9.98
2017-09-18T05:24:37.403Z,10.01
2017-09-18T05:25:37.971Z,9.87
2017-09-18T05:26:38.543Z,10.01
2017-09-18T05:27:39.110Z,9.95
2017-09-18T05:28:39.679Z,9.91
2017-09-18T05:29:40.250Z,9.99
2017-09-18T05:30:40.822Z,9.94
2017-09-18T05:31:41.394Z,9.92
2017-09-18T05:32:41.964Z,9.94
2017-09-18T05:33:42.536Z,9.89
2017-09-18T05:34:43.113Z,10.04
2017-09-18T05:35:43.693Z,9.97
2017-09-18T05:36:44.261Z,9.91
2017-09-18T05:37:44.831Z,9.94
2017-09-18T05:38:45.403Z,9.89
2017-09-18T05:39:45.973Z,9.92
2017-09-18T05:40:46.556Z,9.97
2017-09-18T05:41:47.129Z,10.04
2017-09-18T05:42:47.699Z,9.97
2017-09-18T05:43:48.268Z,9.87
2017-09-18T05:44:48.839Z,9.92
2017-09-18T05:45:49.413Z,9.91
2017-09-18T05:46:49.980Z,9.89
2017-09-18T05:47:50.551Z,9.94
2017-09-18T05:48:51.123Z,9.89
2017-09-18T05:49:51.695Z,9.92
2017-09-18T05:50:52.268Z,9.92
2017-09-18T05:51:52.841Z,10.04
2017-09-18T05:52:53.423Z,10.02
2017-09-18T05:53:53.996Z,9.98
2017-09-18T05:54:54.568Z,9.99
2017-09-18T05:55:55.142Z,10.13
2017-09-18T05:56:55.714Z,10.13
2017-09-18T05:57:56.287Z,10.15
2017-09-18T05:58:56.857Z,10.15
2017-09-18T05:59:57.434Z,10.15
2017-09-18T06:00:58.002Z,10.20
2017-09-18T06:01:58.575Z,10.15
2017-09-18T06:02:59.147Z,10.17
2017-09-18T06:03:59.720Z,10.22
2017-09-18T06:05:00.304Z,10.17
2017-09-18T06:06:00.864Z,10.17
2017-09-18T06:07:01.435Z,10.19
2017-09-18T06:08:02.016Z,10.10
2017-09-18T06:09:02.591Z,10.20
2017-09-18T06:10:03.174Z,10.23
2017-09-18T06:11:03.747Z,10.20
2017-09-18T06:12:04.319Z,10.31
2017-09-18T06:13:04.893Z,10.35
2017-09-18T06:14:05.481Z,10.35
2017-09-18T06:15:06.036Z,10.25
2017-09-18T06:16:06.609Z,10.28
2017-09-18T06:17:07.177Z,10.31
2017-09-18T06:18:07.750Z,10.31
2017-09-18T06:19:08.324Z,10.31
2017-09-18T06:20:08.899Z,10.35
2017-09-18T06:21:09.473Z,10.40
2017-09-18T06:22:10.044Z,10.38
2017-09-18T06:23:10.617Z,10.38
2017-09-18T06:24:11.190Z,10.37
2017-09-18T06:25:11.765Z,10.42
2017-09-18T06:26:12.338Z,10.38
2017-09-18T06:27:12.912Z,10.57
2017-09-18T06:28:13.485Z,10.46
2017-09-18T06:29:14.057Z,10.60
2017-09-18T06:30:14.631Z,10.44
2017-09-18T06:31:15.209Z,10.59
2017-09-18T06:32:15.778Z,10.61
2017-09-18T06:33:16.351Z,10.61
2017-09-18T06:34:16.923Z,10.59
2017-09-18T06:35:17.495Z,10.53
2017-09-18T06:36:18.066Z,10.60
2017-09-18T06:37:18.647Z,10.67
2017-09-18T06:38:19.227Z,10.68
2017-09-18T06:39:19.798Z,10.67
2017-09-18T06:40:20.375Z,10.67
2017-09-18T06:41:20.946Z,10.63
2017-09-18T06:42:21.520Z,10.64
2017-09-18T06:43:22.092Z,10.68
2017-09-18T06:44:22.666Z,10.68
2017-09-18T06:45:23.238Z,10.71
2017-09-18T06:46:23.823Z,10.69
2017-09-18T06:47:24.395Z,10.69
2017-09-18T06:48:24.968Z,10.72
2017-09-18T06:49:25.542Z,10.64
2017-09-18T06:50:26.117Z,10.67
2017-09-18T06:51:26.715Z,10.76
2017-09-18T06:52:27.263Z,10.78
2017-09-18T06:53:27.836Z,10.78
2017-09-18T06:54:28.410Z,10.81
2017-09-18T06:55:28.984Z,10.67
2017-09-18T06:56:29.558Z,10.82
2017-09-18T06:57:30.131Z,10.75
2017-09-18T06:58:30.704Z,10.76
2017-09-18T06:59:31.289Z,10.87
2017-09-18T07:00:31.863Z,10.76
2017-09-18T07:01:32.447Z,10.71
2017-09-18T07:02:33.022Z,10.68
2017-09-18T07:03:33.602Z,10.75
2017-09-18T07:04:34.175Z,10.69
2017-09-18T07:05:34.746Z,10.78
2017-09-18T07:06:35.321Z,10.68
2017-09-18T07:07:35.892Z,10.72
2017-09-18T07:08:36.463Z,10.69
2017-09-18T07:09:37.035Z,10.78
2017-09-18T07:10:37.618Z,10.69
2017-09-18T07:11:38.198Z,10.67
2017-09-18T07:12:38.767Z,10.69
2017-09-18T07:13:39.348Z,10.78
2017-09-18T07:14:39.923Z,10.74
2017-09-18T07:15:40.508Z,10.78
2017-09-18T07:16:41.082Z,10.82
2017-09-18T07:17:41.656Z,10.82
2017-09-18T07:18:42.230Z,10.94
2017-09-18T07:19:42.809Z,10.87
2017-09-18T07:20:43.387Z,10.93
2017-09-18T07:21:43.960Z,11.00
2017-09-18T07:22:44.534Z,10.97
2017-09-18T07:23:45.110Z,11.00
2017-09-18T07:24:45.685Z,10.96
2017-09-18T07:25:46.259Z,11.15
2017-09-18T07:26:46.832Z,11.12
2017-09-18T07:27:47.407Z,11.14
2017-09-18T07:28:47.983Z,11.14
2017-09-18T07:29:48.556Z,11.14
2017-09-18T07:30:49.129Z,11.10
2017-09-18T07:31:49.703Z,11.25
2017-09-18T07:32:50.277Z,11.27
2017-09-18T07:33:50.853Z,11.12
2017-09-18T07:34:51.428Z,11.22
2017-09-18T07:35:52.001Z,11.25
2017-09-18T07:36:52.577Z,11.15
2017-09-18T07:37:53.151Z,11.25
2017-09-18T07:38:53.726Z,11.48
2017-09-18T07:39:54.299Z,11.41
2017-09-18T07:40:54.875Z,11.33
2017-09-18T07:41:55.452Z,11.35
2017-09-18T07:42:56.026Z,11.30
2017-09-18T07:43:56.612Z,11.26
2017-09-18T07:44:57.187Z,11.35
2017-09-18T07:45:57.760Z,11.30
2017-09-18T07:46:58.333Z,11.35
2017-09-18T07:47:58.904Z,11.36
2017-09-18T07:48:59.480Z,11.27
2017-09-18T07:50:00.063Z,11.23
2017-09-18T07:51:00.637Z,11.17
2017-09-18T07:52:01.211Z,11.18
2017-09-18T07:53:01.785Z,11.11
2017-09-18T07:54:02.357Z,11.08
2017-09-18T07:55:02.930Z,11.11
2017-09-18T07:56:03.502Z,11.15
2017-09-18T07:57:04.073Z,11.11
2017-09-18T07:58:04.645Z,11.11
2017-09-18T07:59:05.217Z,11.12
2017-09-18T08:00:05.791Z,11.11
2017-09-18T08:01:06.364Z,11.15
2017-09-18T08:02:06.939Z,11.14
2017-09-18T08:03:07.511Z,11.11
2017-09-18T08:04:08.084Z,11.10
2017-09-18T08:05:08.657Z,11.05
2017-09-18T08:06:09.229Z,10.96
2017-09-18T08:07:09.813Z,11.08
2017-09-18T08:08:10.386Z,11.10
2017-09-18T08:09:10.971Z,10.99
2017-09-18T08:10:11.545Z,11.00
2017-09-18T08:11:12.122Z,11.05
2017-09-18T08:12:12.692Z,11.07
2017-09-18T08:13:13.267Z,11.05
2017-09-18T08:14:13.840Z,11.02
2017-09-18T08:15:14.414Z,11.05
2017-09-18T08:16:14.987Z,11.15
2017-09-18T08:17:15.560Z,11.10
2017-09-18T08:18:16.133Z,11.10
2017-09-18T08:19:16.707Z,11.10
2017-09-18T08:20:17.282Z,11.04
2017-09-18T08:21:17.857Z,11.11
2017-09-18T08:22:18.428Z,11.12
2017-09-18T08:23:19.001Z,11.14
2017-09-18T08:24:19.574Z,11.12
2017-09-18T08:25:20.150Z,11.05
2017-09-18T08:26:20.724Z,11.17
2017-09-18T08:27:21.298Z,11.17
2017-09-18T08:28:21.871Z,11.18
2017-09-18T08:29:22.443Z,11.17
2017-09-18T08:30:23.018Z,11.15
2017-09-18T08:31:23.592Z,11.11
2017-09-18T08:32:24.177Z,11.08
2017-09-18T08:33:24.752Z,11.11
2017-09-18T08:34:25.326Z,11.11
2017-09-18T08:35:25.899Z,11.14
2017-09-18T08:36:26.474Z,11.18
2017-09-18T08:37:27.045Z,11.18
2017-09-18T08:38:27.621Z,11.18
2017-09-18T08:39:28.198Z,11.17
2017-09-18T08:40:28.769Z,11.18
2017-09-18T08:41:29.341Z,11.12
2017-09-18T08:42:29.916Z,11.12
2017-09-18T08:43:30.489Z,11.08
2017-09-18T08:44:31.072Z,11.08
2017-09-18T08:45:31.644Z,11.08
2017-09-18T08:46:32.221Z,11.11
2017-09-18T08:47:32.803Z,11.15
2017-09-18T08:48:33.376Z,11.19
2017-09-18T08:49:33.949Z,11.14
2017-09-18T08:50:34.522Z,11.22
2017-09-18T08:51:35.106Z,11.26
2017-09-18T08:52:35.679Z,11.22
2017-09-18T08:53:36.251Z,11.23
2017-09-18T08:54:36.826Z,11.23
2017-09-18T08:55:37.400Z,11.32
2017-09-18T08:56:37.974Z,11.22
2017-09-18T08:57:38.548Z,11.32
2017-09-18T08:58:39.122Z,11.43
2017-09-18T08:59:39.698Z,11.35
2017-09-18T09:00:40.272Z,11.44
2017-09-18T09:01:40.848Z,11.47
2017-09-18T09:02:41.422Z,11.52
2017-09-18T09:03:41.997Z,11.44
2017-09-18T09:04:42.573Z,11.62
2017-09-18T09:05:43.148Z,11.55
2017-09-18T09:06:43.733Z,11.59
2017-09-18T09:07:44.308Z,11.69
2017-09-18T09:08:44.881Z,11.66
2017-09-18T09:09:45.456Z,11.63
2017-09-18T09:10:46.032Z,11.66
2017-09-18T09:11:46.607Z,11.73
2017-09-18T09:12:47.189Z,11.73
2017-09-18T09:13:47.768Z,11.78
2017-09-18T09:14:48.364Z,11.86
2017-09-18T09:15:48.933Z,11.81
2017-09-18T09:16:49.508Z,11.83
2017-09-18T09:17:50.092Z,11.77
2017-09-18T09:18:50.667Z,11.87
2017-09-18T09:19:51.240Z,11.77
2017-09-18T09:20:51.825Z,11.83
2017-09-18T09:21:52.400Z,11.88
2017-09-18T09:22:52.974Z,11.73
2017-09-18T09:23:53.549Z,11.78
2017-09-18T09:24:54.123Z,11.80
2017-09-18T09:25:54.698Z,11.80
2017-09-18T09:26:55.273Z,11.90
2017-09-18T09:27:55.848Z,11.84
2017-09-18T09:28:56.424Z,11.90
2017-09-18T09:29:56.998Z,11.97
2017-09-18T09:30:57.573Z,12.04
2017-09-18T09:31:58.146Z,11.95
2017-09-18T09:32:58.720Z,12.00
2017-09-18T09:33:59.296Z,11.99
2017-09-18T09:34:59.871Z,12.07
2017-09-18T09:36:00.457Z,12.10
2017-09-18T09:37:01.033Z,12.17
2017-09-18T09:38:01.607Z,12.12
2017-09-18T09:39:02.180Z,12.24
2017-09-18T09:40:02.769Z,12.24
2017-09-18T09:41:03.333Z,12.28
2017-09-18T09:42:03.913Z,12.32
2017-09-18T09:43:04.482Z,12.42
2017-09-18T09:44:05.057Z,12.47
2017-09-18T09:45:05.633Z,12.57
2017-09-18T09:46:06.207Z,12.55
2017-09-18T09:47:06.783Z,12.49
2017-09-18T09:48:07.356Z,12.54
2017-09-18T09:49:07.942Z,12.53
2017-09-18T09:50:08.518Z,12.50
2017-09-18T09:51:09.101Z,12.50
2017-09-18T09:52:09.677Z,12.54
2017-09-18T09:53:10.261Z,12.53
2017-09-18T09:54:10.837Z,12.78
2017-09-18T09:55:11.411Z,12.73
2017-09-18T09:56:11.986Z,12.36
2017-09-18T09:57:12.563Z,12.54
2017-09-18T09:58:13.138Z,12.46
2017-09-18T09:59:13.714Z,12.35
2017-09-18T10:00:14.300Z,12.40
2017-09-18T10:01:14.875Z,12.55
2017-09-18T10:02:15.450Z,12.50
2017-09-18T10:03:16.024Z,12.43
2017-09-18T10:04:16.603Z,12.39
2017-09-18T10:05:17.183Z,12.37
2017-09-18T10:06:17.759Z,12.36
2017-09-18T10:07:18.335Z,12.28
2017-09-18T10:08:18.911Z,12.46
2017-09-18T10:09:19.485Z,12.43
2017-09-18T10:10:20.058Z,12.39
2017-09-18T10:11:20.634Z,12.37
2017-09-18T10:12:21.210Z,12.43
2017-09-18T10:13:21.786Z,12.43
2017-09-18T10:14:22.360Z,12.57
2017-09-18T10:15:22.935Z,12.65
2017-09-18T10:16:23.511Z,12.53
2017-09-18T10:17:24.086Z,12.40
2017-09-18T10:18:24.660Z,12.46
2017-09-18T10:19:25.235Z,12.53
2017-09-18T10:20:25.811Z,12.68
2017-09-18T10:21:26.386Z,12.55
2017-09-18T10:22:26.962Z,12.70
2017-09-18T10:23:27.536Z,12.86
2017-09-18T10:24:28.110Z,12.64
2017-09-18T10:25:28.685Z,12.67
2017-09-18T10:26:29.261Z,12.65
2017-09-18T10:27:29.836Z,12.65
2017-09-18T10:28:30.420Z,12.91
2017-09-18T10:29:30.997Z,12.68
2017-09-18T10:30:31.571Z,12.76
2017-09-18T10:31:32.145Z,12.70
2017-09-18T10:32:32.723Z,12.67
2017-09-18T10:33:33.300Z,12.73
2017-09-18T10:34:33.875Z,12.97
2017-09-18T10:35:34.459Z,12.72
2017-09-18T10:36:35.037Z,12.68
2017-09-18T10:37:35.610Z,12.67
2017-09-18T10:38:36.186Z,12.65
2017-09-18T10:39:36.761Z,12.93
2017-09-18T10:40:37.339Z,12.79
2017-09-18T10:41:37.913Z,12.70
2017-09-18T10:42:38.488Z,12.72
2017-09-18T10:43:39.063Z,12.65
2017-09-18T10:44:39.645Z,12.78
2017-09-18T10:45:40.224Z,12.85
2017-09-18T10:46:40.802Z,12.90
2017-09-18T10:47:41.377Z,12.91
2017-09-18T10:48:41.953Z,13.11
2017-09-18T10:49:42.531Z,12.83
2017-09-18T10:50:43.114Z,12.86
2017-09-18T10:51:43.688Z,12.85
2017-09-18T10:52:44.263Z,12.91
2017-09-18T10:53:44.839Z,12.79
2017-09-18T10:54:45.417Z,12.78
2017-09-18T10:55:45.992Z,12.93
2017-09-18T10:56:46.567Z,13.00
2017-09-18T10:57:47.144Z,13.12
2017-09-18T10:58:47.719Z,13.39
2017-09-18T10:59:48.305Z,13.49
2017-09-18T11:00:48.883Z,13.62
2017-09-18T11:01:49.458Z,13.72
2017-09-18T11:02:50.032Z,13.70
2017-09-18T11:03:50.609Z,13.86
2017-09-18T11:04:51.184Z,14.17
2017-09-18T11:05:51.761Z,14.18
2017-09-18T11:06:52.336Z,14.41
2017-09-18T11:07:52.911Z,14.14
2017-09-18T11:08:53.487Z,14.37
2017-09-18T11:09:54.073Z,14.33
2017-09-18T11:10:54.665Z,14.47
2017-09-18T11:11:55.235Z,14.59
2017-09-18T11:12:55.809Z,14.45
2017-09-18T11:13:56.385Z,14.15
2017-09-18T11:14:56.963Z,14.05
2017-09-18T11:15:57.539Z,14.30
2017-09-18T11:16:58.114Z,14.22
2017-09-18T11:17:58.691Z,14.35
2017-09-18T11:18:59.268Z,14.33
2017-09-18T11:19:59.846Z,14.50
2017-09-18T11:21:00.420Z,14.51
2017-09-18T11:22:00.996Z,14.78
2017-09-18T11:23:01.574Z,14.51
2017-09-18T11:24:02.150Z,14.84
2017-09-18T11:25:02.734Z,14.70
2017-09-18T11:26:03.310Z,14.63
2017-09-18T11:27:03.888Z,14.72
2017-09-18T11:28:04.465Z,14.69
2017-09-18T11:29:05.042Z,14.23
2017-09-18T11:30:05.619Z,14.17
2017-09-18T11:31:06.205Z,14.08
2017-09-18T11:32:06.793Z,13.95
2017-09-18T11:33:07.369Z,13.92
2017-09-18T11:34:07.945Z,14.07
2017-09-18T11:35:08.521Z,14.41
2017-09-18T11:36:09.098Z,14.51
2017-09-18T11:37:09.677Z,14.55
2017-09-18T11:38:10.264Z,14.70
2017-09-18T11:39:10.841Z,14.70
2017-09-18T11:40:11.417Z,14.65
2017-09-18T11:41:11.993Z,14.60
2017-09-18T11:42:12.569Z,14.59
2017-09-18T11:43:13.148Z,14.55
2017-09-18T11:44:13.725Z,14.85
2017-09-18T11:45:14.302Z,14.92
2017-09-18T11:46:14.887Z,15.00
2017-09-18T11:47:15.455Z,14.88
2017-09-18T11:48:16.033Z,14.99
2017-09-18T11:49:16.608Z,14.66
2017-09-18T11:50:17.184Z,14.84
2017-09-18T11:51:17.760Z,14.45
2017-09-18T11:52:18.336Z,14.69
2017-09-18T11:53:18.915Z,14.58
2017-09-18T11:54:19.491Z,14.65
2017-09-18T11:55:20.069Z,14.72
2017-09-18T11:56:20.648Z,14.91
2017-09-18T11:57:21.224Z,15.24
2017-09-18T11:58:21.802Z,15.29
2017-09-18T11:59:22.379Z,15.21
2017-09-18T12:00:22.957Z,14.89
2017-09-18T12:01:23.536Z,15.11
2017-09-18T12:02:24.113Z,15.18
2017-09-18T12:03:24.692Z,15.15
2017-09-18T12:04:25.269Z,15.42
2017-09-18T12:05:25.856Z,15.59
2017-09-18T12:06:26.443Z,15.51
2017-09-18T12:07:27.018Z,15.39
2017-09-18T12:08:27.595Z,15.28
2017-09-18T12:09:28.173Z,15.25
2017-09-18T12:10:28.749Z,15.28
2017-09-18T12:11:29.325Z,15.43
2017-09-18T12:12:29.901Z,15.37
2017-09-18T12:13:30.477Z,15.35
2017-09-18T12:14:31.055Z,15.27
2017-09-18T12:15:31.634Z,15.18
2017-09-18T12:16:32.210Z,15.14
2017-09-18T12:17:32.787Z,15.19
2017-09-18T12:18:33.365Z,15.43
2017-09-18T12:19:33.943Z,15.46
2017-09-18T12:20:34.520Z,15.18
2017-09-18T12:21:35.097Z,15.03
2017-09-18T12:22:35.675Z,14.94
2017-09-18T12:23:36.254Z,15.03
2017-09-18T12:24:36.832Z,15.11
2017-09-18T12:25:37.407Z,15.27
2017-09-18T12:26:37.989Z,15.37
2017-09-18T12:27:38.563Z,15.37
2017-09-18T12:28:39.140Z,15.28
2017-09-18T12:29:39.718Z,15.52
2017-09-18T12:30:40.296Z,15.52
2017-09-18T12:31:40.876Z,15.65
2017-09-18T12:32:41.456Z,15.64
2017-09-18T12:33:42.032Z,15.65
2017-09-18T12:34:42.610Z,15.80
2017-09-18T12:35:43.188Z,15.29
2017-09-18T12:36:43.764Z,15.27
2017-09-18T12:37:44.343Z,15.36
2017-09-18T12:38:44.919Z,15.49
2017-09-18T12:39:45.499Z,15.83
2017-09-18T12:40:46.079Z,16.01
2017-09-18T12:41:46.656Z,15.98
2017-09-18T12:42:47.235Z,15.64
2017-09-18T12:43:47.823Z,15.65
2017-09-18T12:44:48.390Z,16.00
2017-09-18T12:45:48.969Z,16.05
2017-09-18T12:46:49.546Z,16.28
2017-09-18T12:47:50.133Z,16.16
2017-09-18T12:48:50.703Z,16.09
2017-09-18T12:49:51.278Z,15.64
2017-09-18T12:50:51.855Z,15.80
2017-09-18T12:51:52.434Z,15.52
2017-09-18T12:52:53.021Z,15.77
2017-09-18T12:53:53.601Z,16.02
2017-09-18T12:54:54.177Z,16.15
2017-09-18T12:55:54.754Z,16.05
2017-09-18T12:56:55.331Z,16.05
2017-09-18T12:57:55.909Z,16.21
2017-09-18T12:58:56.488Z,16.09
2017-09-18T12:59:57.067Z,16.28
2017-09-18T13:00:57.645Z,16.16
2017-09-18T13:01:58.222Z,16.20
2017-09-18T13:02:58.801Z,15.94
2017-09-18T13:03:59.390Z,16.13
2017-09-18T13:04:59.970Z,16.13
2017-09-18T13:06:00.548Z,16.08
2017-09-18T13:07:01.126Z,16.10
2017-09-18T13:08:01.704Z,15.86
2017-09-18T13:09:02.282Z,15.75